Elk Rapids, Michigan
Current Conditions -  °F | °C
As of 9:35 AM on Sunday 23 Nov 2014 (Local Time) from KACB Reporting Station
Haze Haze  
Wind Chill: 40°   Ceiling: 500
Heat Index: 45°   Visibility: 2.5mi
Dew Point: 43°   Wind: 8mph
Humidity: 93%   Direction: 160°SSE
Pressure: 29.73"   Gusts: NA
Location:  44.9°N, 85.42°W
Report Text: KACB 231435Z AUTO 16007KT 2 1/2SM BR OVC005 07/06 A2973 RMK AO2 T00700060
Loading
Personal Weather Stations






























Interactive Weather Map New forecast layout! Learn more

10-Day Weather Forecast

Advertisements
Track Severe Weather on mobile